sensor_id;sensor_type;location;lat;lon;timestamp;pressure;altitude;pressure_sealevel;temperature;humidity
23176;BME280;19910;42.652;23.332;2023-07-13T00:00:41;94835.53;;;21.56;70.51
23176;BME280;19910;42.652;23.332;2023-07-13T00:03:08;94835.16;;;21.57;72.53
23176;BME280;19910;42.652;23.332;2023-07-13T00:05:39;94837.06;;;21.46;71.50
23176;BME280;19910;42.652;23.332;2023-07-13T00:08:08;94824.88;;;21.30;71.86
23176;BME280;19910;42.652;23.332;2023-07-13T00:10:39;94835.09;;;21.33;71.40
23176;BME280;19910;42.652;23.332;2023-07-13T00:13:07;94828.00;;;21.35;70.30
23176;BME280;19910;42.652;23.332;2023-07-13T00:15:34;94840.59;;;21.33;70.22
23176;BME280;19910;42.652;23.332;2023-07-13T00:18:01;94825.63;;;21.34;70.40
23176;BME280;19910;42.652;23.332;2023-07-13T00:20:28;94829.97;;;21.27;70.54
23176;BME280;19910;42.652;23.332;2023-07-13T00:22:55;94827.22;;;21.27;71.06
23176;BME280;19910;42.652;23.332;2023-07-13T00:25:23;94820.94;;;21.31;70.85
23176;BME280;19910;42.652;23.332;2023-07-13T00:27:53;94819.34;;;21.37;70.89
23176;BME280;19910;42.652;23.332;2023-07-13T00:30:20;94818.56;;;21.36;72.17
23176;BME280;19910;42.652;23.332;2023-07-13T00:32:47;94817.38;;;21.30;72.84
23176;BME280;19910;42.652;23.332;2023-07-13T00:35:14;94824.84;;;21.22;73.51
23176;BME280;19910;42.652;23.332;2023-07-13T00:37:41;94823.22;;;21.14;74.05
23176;BME280;19910;42.652;23.332;2023-07-13T00:40:10;94815.34;;;21.09;74.56
23176;BME280;19910;42.652;23.332;2023-07-13T00:42:39;94819.66;;;21.10;75.10
23176;BME280;19910;42.652;23.332;2023-07-13T00:48:14;94818.09;;;21.09;74.49
23176;BME280;19910;42.652;23.332;2023-07-13T00:50:42;94827.94;;;21.10;74.23
23176;BME280;19910;42.652;23.332;2023-07-13T00:53:10;94823.22;;;21.14;73.84
23176;BME280;19910;42.652;23.332;2023-07-13T00:55:37;94812.97;;;21.11;73.93
23176;BME280;19910;42.652;23.332;2023-07-13T00:58:06;94820.84;;;21.13;73.90
23176;BME280;19910;42.652;23.332;2023-07-13T01:00:35;94813.78;;;21.15;74.77
23176;BME280;19910;42.652;23.332;2023-07-13T01:03:03;94810.97;;;20.90;75.54
23176;BME280;19910;42.652;23.332;2023-07-13T01:05:32;94801.13;;;20.86;75.18
23176;BME280;19910;42.652;23.332;2023-07-13T01:08:01;94818.00;;;20.74;74.55
23176;BME280;19910;42.652;23.332;2023-07-13T01:10:29;94809.66;;;20.60;74.73
23176;BME280;19910;42.652;23.332;2023-07-13T01:13:05;94809.66;;;20.60;73.88
23176;BME280;19910;42.652;23.332;2023-07-13T01:15:40;94804.97;;;20.67;73.65
23176;BME280;19910;42.652;23.332;2023-07-13T01:18:08;94807.38;;;20.76;73.68
23176;BME280;19910;42.652;23.332;2023-07-13T01:20:37;94804.63;;;20.76;73.56
23176;BME280;19910;42.652;23.332;2023-07-13T01:23:07;94803.88;;;20.86;74.27
23176;BME280;19910;42.652;23.332;2023-07-13T01:25:34;94801.88;;;20.83;74.15
23176;BME280;19910;42.652;23.332;2023-07-13T01:28:02;94795.97;;;20.74;76.04
23176;BME280;19910;42.652;23.332;2023-07-13T01:30:29;94803.38;;;20.59;75.36
23176;BME280;19910;42.652;23.332;2023-07-13T01:32:57;94807.34;;;20.69;75.32
23176;BME280;19910;42.652;23.332;2023-07-13T01:35:24;94812.78;;;20.54;75.91
23176;BME280;19910;42.652;23.332;2023-07-13T01:37:52;94819.88;;;20.55;76.63
23176;BME280;19910;42.652;23.332;2023-07-13T01:40:21;94803.34;;;20.52;76.31
23176;BME280;19910;42.652;23.332;2023-07-13T01:42:47;94814.25;;;20.34;76.87
23176;BME280;19910;42.652;23.332;2023-07-13T01:45:14;94809.19;;;20.43;76.66
23176;BME280;19910;42.652;23.332;2023-07-13T01:47:41;94797.84;;;20.48;76.93
23176;BME280;19910;42.652;23.332;2023-07-13T01:50:09;94809.59;;;20.45;77.59
23176;BME280;19910;42.652;23.332;2023-07-13T01:52:36;94801.72;;;20.40;78.09
23176;BME280;19910;42.652;23.332;2023-07-13T01:55:03;94800.91;;;20.40;78.37
23176;BME280;19910;42.652;23.332;2023-07-13T01:57:32;94807.16;;;20.33;76.69
23176;BME280;19910;42.652;23.332;2023-07-13T01:59:58;94795.41;;;20.36;77.49
23176;BME280;19910;42.652;23.332;2023-07-13T02:02:25;94798.91;;;20.33;77.44
23176;BME280;19910;42.652;23.332;2023-07-13T02:04:52;94807.50;;;20.21;77.82
23176;BME280;19910;42.652;23.332;2023-07-13T02:07:19;94814.94;;;20.24;77.77
23176;BME280;19910;42.652;23.332;2023-07-13T02:09:46;94814.56;;;20.22;78.22
23176;BME280;19910;42.652;23.332;2023-07-13T02:12:13;94814.91;;;20.13;78.85
23176;BME280;19910;42.652;23.332;2023-07-13T02:14:41;94814.13;;;20.16;79.06
23176;BME280;19910;42.652;23.332;2023-07-13T02:17:09;94815.25;;;20.05;79.10
23176;BME280;19910;42.652;23.332;2023-07-13T02:19:36;94825.88;;;20.10;78.95
23176;BME280;19910;42.652;23.332;2023-07-13T02:22:03;94817.16;;;19.94;79.15
23176;BME280;19910;42.652;23.332;2023-07-13T02:24:30;94821.81;;;19.90;79.43
23176;BME280;19910;42.652;23.332;2023-07-13T02:26:56;94816.06;;;19.54;80.91
23176;BME280;19910;42.652;23.332;2023-07-13T02:29:23;94820.03;;;19.60;80.05
23176;BME280;19910;42.652;23.332;2023-07-13T02:31:51;94825.31;;;19.42;80.02
23176;BME280;19910;42.652;23.332;2023-07-13T02:34:18;94830.81;;;19.39;79.48
23176;BME280;19910;42.652;23.332;2023-07-13T02:36:45;94835.63;;;19.49;79.40
23176;BME280;19910;42.652;23.332;2023-07-13T02:39:13;94831.84;;;19.64;78.72
23176;BME280;19910;42.652;23.332;2023-07-13T02:41:40;94827.22;;;19.75;78.93
23176;BME280;19910;42.652;23.332;2023-07-13T02:44:07;94824.09;;;19.77;79.26
23176;BME280;19910;42.652;23.332;2023-07-13T02:46:35;94817.44;;;19.81;79.81
23176;BME280;19910;42.652;23.332;2023-07-13T02:49:04;94820.28;;;19.92;79.54
23176;BME280;19910;42.652;23.332;2023-07-13T02:51:31;94820.25;;;19.88;79.49
23176;BME280;19910;42.652;23.332;2023-07-13T02:53:59;94824.50;;;19.82;79.40
23176;BME280;19910;42.652;23.332;2023-07-13T02:56:27;94823.84;;;20.00;79.26
23176;BME280;19910;42.652;23.332;2023-07-13T02:58:54;94822.56;;;19.86;80.12
23176;BME280;19910;42.652;23.332;2023-07-13T03:01:22;94826.50;;;19.85;79.44
23176;BME280;19910;42.652;23.332;2023-07-13T03:03:49;94826.06;;;19.80;79.90
23176;BME280;19910;42.652;23.332;2023-07-13T03:06:18;94838.13;;;19.68;80.11
23176;BME280;19910;42.652;23.332;2023-07-13T03:08:45;94830.38;;;19.77;79.71
23176;BME280;19910;42.652;23.332;2023-07-13T03:11:13;94833.75;;;20.08;78.80
23176;BME280;19910;42.652;23.332;2023-07-13T03:13:41;94836.13;;;20.13;77.81
23176;BME280;19910;42.652;23.332;2023-07-13T03:16:09;94836.28;;;20.38;77.47
23176;BME280;19910;42.652;23.332;2023-07-13T03:18:37;94823.13;;;20.75;75.58
23176;BME280;19910;42.652;23.332;2023-07-13T03:21:04;94820.13;;;21.26;73.69
23176;BME280;19910;42.652;23.332;2023-07-13T03:23:33;94830.44;;;21.72;72.19
23176;BME280;19910;42.652;23.332;2023-07-13T03:26:04;94829.19;;;22.30;71.28
23176;BME280;19910;42.652;23.332;2023-07-13T03:28:32;94818.44;;;22.78;69.69
23176;BME280;19910;42.652;23.332;2023-07-13T03:30:59;94824.56;;;23.21;68.29
23176;BME280;19910;42.652;23.332;2023-07-13T03:33:26;94829.88;;;23.57;66.49
23176;BME280;19910;42.652;23.332;2023-07-13T03:35:53;94827.47;;;24.10;65.18
23176;BME280;19910;42.652;23.332;2023-07-13T03:38:20;94827.50;;;24.48;63.37
23176;BME280;19910;42.652;23.332;2023-07-13T03:40:48;94827.84;;;24.88;61.43
23176;BME280;19910;42.652;23.332;2023-07-13T03:43:15;94820.94;;;25.33;60.48
23176;BME280;19910;42.652;23.332;2023-07-13T03:45:42;94825.47;;;25.50;59.40
23176;BME280;19910;42.652;23.332;2023-07-13T03:48:09;94822.91;;;26.13;58.65
23176;BME280;19910;42.652;23.332;2023-07-13T03:50:36;94817.06;;;26.31;57.63
23176;BME280;19910;42.652;23.332;2023-07-13T03:53:04;94823.25;;;26.82;56.74
23176;BME280;19910;42.652;23.332;2023-07-13T03:55:31;94817.38;;;27.36;54.80
23176;BME280;19910;42.652;23.332;2023-07-13T03:58:00;94820.13;;;27.55;53.78
23176;BME280;19910;42.652;23.332;2023-07-13T04:00:27;94814.78;;;28.46;51.76
23176;BME280;19910;42.652;23.332;2023-07-13T04:02:57;94813.03;;;28.52;51.74
23176;BME280;19910;42.652;23.332;2023-07-13T04:05:23;94808.88;;;29.43;49.93
23176;BME280;19910;42.652;23.332;2023-07-13T04:07:50;94813.44;;;29.37;49.74
23176;BME280;19910;42.652;23.332;2023-07-13T04:10:17;94812.69;;;30.00;48.55
23176;BME280;19910;42.652;23.332;2023-07-13T04:12:44;94815.81;;;29.51;49.08
23176;BME280;19910;42.652;23.332;2023-07-13T04:15:12;94807.78;;;30.51;47.04
23176;BME280;19910;42.652;23.332;2023-07-13T04:17:39;94805.91;;;30.83;46.93
23176;BME280;19910;42.652;23.332;2023-07-13T04:20:06;94802.50;;;31.31;46.24
23176;BME280;19910;42.652;23.332;2023-07-13T04:22:33;94801.63;;;31.13;46.03
23176;BME280;19910;42.652;23.332;2023-07-13T04:25:00;94816.59;;;31.19;46.16
23176;BME280;19910;42.652;23.332;2023-07-13T04:27:27;94824.38;;;30.80;46.63
23176;BME280;19910;42.652;23.332;2023-07-13T04:29:54;94831.25;;;30.66;45.99
23176;BME280;19910;42.652;23.332;2023-07-13T04:32:22;94838.03;;;31.13;45.37
23176;BME280;19910;42.652;23.332;2023-07-13T04:34:49;94829.72;;;31.31;45.61
23176;BME280;19910;42.652;23.332;2023-07-13T04:37:20;94829.72;;;30.87;45.35
23176;BME280;19910;42.652;23.332;2023-07-13T04:39:46;94830.78;;;31.02;45.68
23176;BME280;19910;42.652;23.332;2023-07-13T04:42:13;94832.25;;;32.22;43.33
23176;BME280;19910;42.652;23.332;2023-07-13T04:44:40;94830.59;;;32.70;42.10
23176;BME280;19910;42.652;23.332;2023-07-13T04:47:07;94837.94;;;31.69;44.10
23176;BME280;19910;42.652;23.332;2023-07-13T04:49:35;94830.00;;;33.11;41.44
23176;BME280;19910;42.652;23.332;2023-07-13T04:52:02;94828.44;;;32.83;42.00
23176;BME280;19910;42.652;23.332;2023-07-13T04:54:29;94839.78;;;34.13;40.70
23176;BME280;19910;42.652;23.332;2023-07-13T04:56:56;94853.41;;;33.45;41.11
23176;BME280;19910;42.652;23.332;2023-07-13T04:59:22;94853.22;;;34.09;40.04
23176;BME280;19910;42.652;23.332;2023-07-13T05:01:49;94860.91;;;33.48;40.57
23176;BME280;19910;42.652;23.332;2023-07-13T05:04:16;94853.06;;;33.52;40.25
23176;BME280;19910;42.652;23.332;2023-07-13T05:06:44;94851.50;;;33.60;40.43
23176;BME280;19910;42.652;23.332;2023-07-13T05:09:11;94853.34;;;33.72;40.44
23176;BME280;19910;42.652;23.332;2023-07-13T05:11:38;94850.31;;;34.36;39.16
23176;BME280;19910;42.652;23.332;2023-07-13T05:14:05;94864.94;;;34.49;39.03
23176;BME280;19910;42.652;23.332;2023-07-13T05:16:32;94856.72;;;34.37;38.81
23176;BME280;19910;42.652;23.332;2023-07-13T05:18:59;94860.38;;;34.85;38.92
23176;BME280;19910;42.652;23.332;2023-07-13T05:21:26;94860.09;;;34.50;39.17
23176;BME280;19910;42.652;23.332;2023-07-13T05:23:54;94861.91;;;34.86;38.99
23176;BME280;19910;42.652;23.332;2023-07-13T05:26:21;94866.19;;;33.09;41.75
23176;BME280;19910;42.652;23.332;2023-07-13T05:28:47;94857.94;;;32.78;41.98
23176;BME280;19910;42.652;23.332;2023-07-13T05:31:14;94857.03;;;34.86;38.67
23176;BME280;19910;42.652;23.332;2023-07-13T05:33:41;94865.69;;;34.83;38.14
23176;BME280;19910;42.652;23.332;2023-07-13T05:36:08;94862.06;;;34.26;38.91
23176;BME280;19910;42.652;23.332;2023-07-13T05:38:35;94854.56;;;35.42;37.24
23176;BME280;19910;42.652;23.332;2023-07-13T05:41:06;94868.59;;;35.51;37.20
23176;BME280;19910;42.652;23.332;2023-07-13T05:43:35;94866.75;;;36.56;35.86
23176;BME280;19910;42.652;23.332;2023-07-13T05:46:01;94858.97;;;37.73;33.88
23176;BME280;19910;42.652;23.332;2023-07-13T05:48:28;94865.78;;;38.13;33.43
23176;BME280;19910;42.652;23.332;2023-07-13T05:50:55;94869.44;;;37.21;33.68
23176;BME280;19910;42.652;23.332;2023-07-13T05:53:22;94862.81;;;37.70;33.77
23176;BME280;19910;42.652;23.332;2023-07-13T05:55:49;94866.16;;;38.63;33.20
23176;BME280;19910;42.652;23.332;2023-07-13T05:58:19;94867.94;;;38.60;32.88
23176;BME280;19910;42.652;23.332;2023-07-13T06:00:59;94873.03;;;38.19;32.83
23176;BME280;19910;42.652;23.332;2023-07-13T06:03:26;94860.91;;;38.50;32.25
23176;BME280;19910;42.652;23.332;2023-07-13T06:05:53;94849.94;;;38.00;33.74
23176;BME280;19910;42.652;23.332;2023-07-13T06:08:19;94843.34;;;38.46;32.53
23176;BME280;19910;42.652;23.332;2023-07-13T06:10:46;94845.69;;;38.96;32.33
23176;BME280;19910;42.652;23.332;2023-07-13T06:13:13;94846.78;;;38.19;32.35
23176;BME280;19910;42.652;23.332;2023-07-13T06:15:41;94856.91;;;38.31;32.75
23176;BME280;19910;42.652;23.332;2023-07-13T06:18:08;94864.81;;;38.58;31.68
23176;BME280;19910;42.652;23.332;2023-07-13T06:20:35;94864.44;;;36.55;34.08
23176;BME280;19910;42.652;23.332;2023-07-13T06:23:03;94863.94;;;35.09;36.77
23176;BME280;19910;42.652;23.332;2023-07-13T06:25:29;94872.16;;;34.98;37.12
23176;BME280;19910;42.652;23.332;2023-07-13T06:27:56;94868.00;;;35.47;37.04
23176;BME280;19910;42.652;23.332;2023-07-13T06:30:23;94867.31;;;37.16;33.68
23176;BME280;19910;42.652;23.332;2023-07-13T06:32:51;94863.03;;;38.24;33.37
23176;BME280;19910;42.652;23.332;2023-07-13T06:35:18;94866.34;;;36.63;36.01
23176;BME280;19910;42.652;23.332;2023-07-13T06:37:46;94860.66;;;36.78;35.42
23176;BME280;19910;42.652;23.332;2023-07-13T06:40:13;94858.91;;;37.21;34.64
23176;BME280;19910;42.652;23.332;2023-07-13T06:42:40;94852.13;;;36.73;34.38
23176;BME280;19910;42.652;23.332;2023-07-13T06:45:07;94857.09;;;36.28;36.67
23176;BME280;19910;42.652;23.332;2023-07-13T06:47:34;94851.84;;;37.57;32.88
23176;BME280;19910;42.652;23.332;2023-07-13T06:50:03;94853.63;;;37.55;32.64
23176;BME280;19910;42.652;23.332;2023-07-13T06:52:30;94857.88;;;38.54;31.50
23176;BME280;19910;42.652;23.332;2023-07-13T06:54:56;94852.75;;;37.69;33.94
23176;BME280;19910;42.652;23.332;2023-07-13T06:57:23;94847.31;;;37.40;31.79
23176;BME280;19910;42.652;23.332;2023-07-13T06:59:50;94863.97;;;35.00;35.43
23176;BME280;19910;42.652;23.332;2023-07-13T07:02:17;94857.25;;;35.21;34.74
23176;BME280;19910;42.652;23.332;2023-07-13T07:04:43;94864.56;;;35.04;34.78
23176;BME280;19910;42.652;23.332;2023-07-13T07:07:11;94865.78;;;35.51;35.14
23176;BME280;19910;42.652;23.332;2023-07-13T07:09:38;94868.03;;;34.51;35.54
23176;BME280;19910;42.652;23.332;2023-07-13T07:12:05;94873.09;;;33.27;37.93
23176;BME280;19910;42.652;23.332;2023-07-13T07:14:32;94857.03;;;34.63;35.73
23176;BME280;19910;42.652;23.332;2023-07-13T07:17:00;94855.94;;;36.20;33.56
23176;BME280;19910;42.652;23.332;2023-07-13T07:19:27;94851.41;;;36.78;32.27
23176;BME280;19910;42.652;23.332;2023-07-13T07:21:54;94855.72;;;36.93;32.45
23176;BME280;19910;42.652;23.332;2023-07-13T07:24:22;94854.59;;;38.03;30.79
23176;BME280;19910;42.652;23.332;2023-07-13T07:26:49;94854.22;;;38.53;29.52
23176;BME280;19910;42.652;23.332;2023-07-13T07:29:15;94854.44;;;37.15;30.89
23176;BME280;19910;42.652;23.332;2023-07-13T07:31:42;94849.78;;;37.12;31.80
23176;BME280;19910;42.652;23.332;2023-07-13T07:34:09;94857.56;;;36.76;31.88
23176;BME280;19910;42.652;23.332;2023-07-13T07:36:36;94846.28;;;36.41;32.56
23176;BME280;19910;42.652;23.332;2023-07-13T07:39:02;94845.69;;;37.13;32.92
23176;BME280;19910;42.652;23.332;2023-07-13T07:41:31;94840.50;;;37.31;32.02
23176;BME280;19910;42.652;23.332;2023-07-13T07:43:58;94844.94;;;36.57;32.36
23176;BME280;19910;42.652;23.332;2023-07-13T07:46:25;94831.69;;;35.78;33.58
23176;BME280;19910;42.652;23.332;2023-07-13T07:48:51;94835.53;;;35.95;33.08
23176;BME280;19910;42.652;23.332;2023-07-13T07:51:18;94827.97;;;36.92;32.61
23176;BME280;19910;42.652;23.332;2023-07-13T07:53:45;94834.69;;;36.39;34.71
23176;BME280;19910;42.652;23.332;2023-07-13T07:56:12;94831.59;;;37.39;33.42
23176;BME280;19910;42.652;23.332;2023-07-13T07:58:40;94828.53;;;37.16;32.53
23176;BME280;19910;42.652;23.332;2023-07-13T08:01:07;94825.34;;;35.15;35.74
23176;BME280;19910;42.652;23.332;2023-07-13T08:03:34;94822.72;;;35.65;34.48
23176;BME280;19910;42.652;23.332;2023-07-13T08:06:01;94821.34;;;35.31;35.29
23176;BME280;19910;42.652;23.332;2023-07-13T08:08:28;94816.47;;;34.93;36.50
23176;BME280;19910;42.652;23.332;2023-07-13T08:10:55;94809.09;;;34.72;35.83
23176;BME280;19910;42.652;23.332;2023-07-13T08:13:22;94803.00;;;34.97;35.38
23176;BME280;19910;42.652;23.332;2023-07-13T08:15:50;94795.13;;;35.40;35.42
23176;BME280;19910;42.652;23.332;2023-07-13T08:18:16;94797.50;;;36.41;34.76
23176;BME280;19910;42.652;23.332;2023-07-13T08:20:43;94805.50;;;35.92;34.50
23176;BME280;19910;42.652;23.332;2023-07-13T08:23:11;94799.94;;;36.48;33.93
23176;BME280;19910;42.652;23.332;2023-07-13T08:25:38;94800.19;;;35.80;34.27
23176;BME280;19910;42.652;23.332;2023-07-13T08:28:05;94794.03;;;35.52;34.09
23176;BME280;19910;42.652;23.332;2023-07-13T08:30:32;94793.34;;;35.27;34.36
23176;BME280;19910;42.652;23.332;2023-07-13T08:33:00;94801.09;;;35.18;35.52
23176;BME280;19910;42.652;23.332;2023-07-13T08:35:27;94792.22;;;34.96;35.01
23176;BME280;19910;42.652;23.332;2023-07-13T08:37:54;94792.97;;;34.72;34.82
23176;BME280;19910;42.652;23.332;2023-07-13T08:40:24;94787.63;;;35.37;33.69
23176;BME280;19910;42.652;23.332;2023-07-13T08:42:54;94786.75;;;35.31;33.85
23176;BME280;19910;42.652;23.332;2023-07-13T08:45:25;94784.88;;;35.57;33.75
23176;BME280;19910;42.652;23.332;2023-07-13T08:47:57;94779.34;;;35.62;35.69
23176;BME280;19910;42.652;23.332;2023-07-13T08:50:32;94778.31;;;34.92;34.18
23176;BME280;19910;42.652;23.332;2023-07-13T08:53:01;94779.78;;;34.64;35.38
23176;BME280;19910;42.652;23.332;2023-07-13T08:55:33;94783.50;;;35.08;33.99
23176;BME280;19910;42.652;23.332;2023-07-13T08:58:07;94785.97;;;35.45;33.94
23176;BME280;19910;42.652;23.332;2023-07-13T09:00:43;94788.47;;;35.28;33.92
23176;BME280;19910;42.652;23.332;2023-07-13T09:03:18;94786.03;;;35.21;33.69
23176;BME280;19910;42.652;23.332;2023-07-13T09:05:50;94799.94;;;35.83;34.74
23176;BME280;19910;42.652;23.332;2023-07-13T09:08:34;94808.44;;;35.39;34.48
23176;BME280;19910;42.652;23.332;2023-07-13T09:11:11;94812.47;;;35.23;35.32
23176;BME280;19910;42.652;23.332;2023-07-13T09:13:44;94816.00;;;35.48;36.58
23176;BME280;19910;42.652;23.332;2023-07-13T09:16:12;94810.84;;;35.32;34.37
23176;BME280;19910;42.652;23.332;2023-07-13T09:18:42;94815.84;;;34.50;35.88
23176;BME280;19910;42.652;23.332;2023-07-13T09:21:14;94817.28;;;34.70;36.32
23176;BME280;19910;42.652;23.332;2023-07-13T09:23:42;94810.16;;;35.37;36.02
23176;BME280;19910;42.652;23.332;2023-07-13T09:26:13;94802.69;;;35.34;35.38
23176;BME280;19910;42.652;23.332;2023-07-13T09:28:42;94811.50;;;34.88;36.08
23176;BME280;19910;42.652;23.332;2023-07-13T09:31:14;94820.56;;;34.68;36.68
23176;BME280;19910;42.652;23.332;2023-07-13T09:33:42;94813.97;;;35.48;36.38
23176;BME280;19910;42.652;23.332;2023-07-13T09:36:20;94808.69;;;35.26;36.15
23176;BME280;19910;42.652;23.332;2023-07-13T09:38:49;94810.53;;;36.03;36.34
23176;BME280;19910;42.652;23.332;2023-07-13T09:41:26;94802.09;;;35.59;35.28
23176;BME280;19910;42.652;23.332;2023-07-13T09:44:07;94792.31;;;36.19;35.81
23176;BME280;19910;42.652;23.332;2023-07-13T09:46:37;94798.97;;;35.86;35.61
23176;BME280;19910;42.652;23.332;2023-07-13T09:49:04;94809.66;;;35.23;36.46
23176;BME280;19910;42.652;23.332;2023-07-13T09:51:32;94798.34;;;34.46;37.31
23176;BME280;19910;42.652;23.332;2023-07-13T09:53:59;94781.94;;;34.69;38.44
23176;BME280;19910;42.652;23.332;2023-07-13T09:56:28;94775.03;;;34.93;38.50
23176;BME280;19910;42.652;23.332;2023-07-13T09:58:56;94776.59;;;35.09;35.79
23176;BME280;19910;42.652;23.332;2023-07-13T10:01:35;94765.16;;;35.57;34.46
23176;BME280;19910;42.652;23.332;2023-07-13T10:04:10;94765.97;;;36.42;33.15
23176;BME280;19910;42.652;23.332;2023-07-13T10:06:40;94773.59;;;35.57;35.71
23176;BME280;19910;42.652;23.332;2023-07-13T10:09:08;94760.28;;;35.72;33.59
23176;BME280;19910;42.652;23.332;2023-07-13T10:11:36;94751.25;;;36.18;33.99
23176;BME280;19910;42.652;23.332;2023-07-13T10:14:11;94754.06;;;36.18;34.36
23176;BME280;19910;42.652;23.332;2023-07-13T10:16:39;94749.03;;;36.42;33.20
23176;BME280;19910;42.652;23.332;2023-07-13T10:19:12;94753.91;;;36.07;31.46
23176;BME280;19910;42.652;23.332;2023-07-13T10:21:49;94761.69;;;35.33;32.32
23176;BME280;19910;42.652;23.332;2023-07-13T10:24:20;94756.38;;;35.84;32.92
23176;BME280;19910;42.652;23.332;2023-07-13T10:26:53;94754.84;;;35.69;35.39
23176;BME280;19910;42.652;23.332;2023-07-13T10:29:23;94742.19;;;35.93;32.94
23176;BME280;19910;42.652;23.332;2023-07-13T10:31:52;94740.81;;;35.74;32.98
23176;BME280;19910;42.652;23.332;2023-07-13T10:34:19;94726.84;;;35.65;32.51
23176;BME280;19910;42.652;23.332;2023-07-13T10:36:48;94713.44;;;35.01;33.94
23176;BME280;19910;42.652;23.332;2023-07-13T10:39:17;94713.38;;;34.72;29.53
23176;BME280;19910;42.652;23.332;2023-07-13T10:41:48;94719.66;;;34.90;35.81
23176;BME280;19910;42.652;23.332;2023-07-13T10:44:21;94717.03;;;35.16;30.51
23176;BME280;19910;42.652;23.332;2023-07-13T10:46:53;94721.72;;;35.49;32.87
23176;BME280;19910;42.652;23.332;2023-07-13T10:49:21;94718.03;;;36.07;31.83
23176;BME280;19910;42.652;23.332;2023-07-13T10:51:49;94709.63;;;36.53;29.27
23176;BME280;19910;42.652;23.332;2023-07-13T10:54:20;94705.28;;;36.32;26.75
23176;BME280;19910;42.652;23.332;2023-07-13T10:56:51;94703.16;;;36.27;27.59
23176;BME280;19910;42.652;23.332;2023-07-13T10:59:24;94700.53;;;36.23;26.60
23176;BME280;19910;42.652;23.332;2023-07-13T11:01:56;94693.56;;;36.39;27.92
23176;BME280;19910;42.652;23.332;2023-07-13T11:04:25;94691.91;;;36.12;27.41
23176;BME280;19910;42.652;23.332;2023-07-13T11:06:57;94679.31;;;36.08;27.64
23176;BME280;19910;42.652;23.332;2023-07-13T11:09:37;94692.19;;;35.94;27.47
23176;BME280;19910;42.652;23.332;2023-07-13T11:12:26;94682.28;;;36.39;26.84
23176;BME280;19910;42.652;23.332;2023-07-13T11:15:11;94686.78;;;36.72;27.17
23176;BME280;19910;42.652;23.332;2023-07-13T11:17:48;94684.34;;;36.85;27.25
23176;BME280;19910;42.652;23.332;2023-07-13T11:20:37;94668.06;;;37.00;26.33
23176;BME280;19910;42.652;23.332;2023-07-13T11:23:19;94677.50;;;37.17;26.76
23176;BME280;19910;42.652;23.332;2023-07-13T11:25:46;94676.56;;;37.31;26.87
23176;BME280;19910;42.652;23.332;2023-07-13T11:28:17;94672.09;;;36.93;27.16
23176;BME280;19910;42.652;23.332;2023-07-13T11:30:47;94667.50;;;36.70;27.39
23176;BME280;19910;42.652;23.332;2023-07-13T11:33:17;94658.41;;;36.60;27.49
23176;BME280;19910;42.652;23.332;2023-07-13T11:35:52;94661.69;;;36.33;28.17
23176;BME280;19910;42.652;23.332;2023-07-13T11:38:23;94655.19;;;36.47;28.95
23176;BME280;19910;42.652;23.332;2023-07-13T11:40:55;94651.75;;;36.63;28.03
23176;BME280;19910;42.652;23.332;2023-07-13T11:43:23;94647.97;;;36.46;27.88
23176;BME280;19910;42.652;23.332;2023-07-13T11:45:51;94646.16;;;36.23;28.14
23176;BME280;19910;42.652;23.332;2023-07-13T11:48:19;94661.59;;;36.07;26.67
23176;BME280;19910;42.652;23.332;2023-07-13T11:50:55;94656.28;;;36.15;27.95
23176;BME280;19910;42.652;23.332;2023-07-13T11:53:27;94650.94;;;36.37;28.02
23176;BME280;19910;42.652;23.332;2023-07-13T11:55:55;94640.91;;;36.16;27.63
23176;BME280;19910;42.652;23.332;2023-07-13T11:58:24;94638.38;;;36.18;28.06
23176;BME280;19910;42.652;23.332;2023-07-13T12:00:55;94629.53;;;36.51;27.95
23176;BME280;19910;42.652;23.332;2023-07-13T12:03:25;94630.19;;;36.86;27.29
23176;BME280;19910;42.652;23.332;2023-07-13T12:05:59;94633.03;;;36.92;27.58
23176;BME280;19910;42.652;23.332;2023-07-13T12:08:28;94629.03;;;36.73;27.74
23176;BME280;19910;42.652;23.332;2023-07-13T12:11:00;94627.09;;;36.84;28.03
23176;BME280;19910;42.652;23.332;2023-07-13T12:13:35;94622.78;;;36.89;28.29
23176;BME280;19910;42.652;23.332;2023-07-13T12:16:12;94617.44;;;36.96;26.65
23176;BME280;19910;42.652;23.332;2023-07-13T12:18:42;94616.75;;;36.76;28.36
23176;BME280;19910;42.652;23.332;2023-07-13T12:21:14;94616.56;;;36.85;28.26
23176;BME280;19910;42.652;23.332;2023-07-13T12:23:46;94612.47;;;36.86;27.38
23176;BME280;19910;42.652;23.332;2023-07-13T12:26:15;94601.25;;;36.97;28.03
23176;BME280;19910;42.652;23.332;2023-07-13T12:28:46;94599.50;;;36.99;28.41
23176;BME280;19910;42.652;23.332;2023-07-13T12:31:26;94591.06;;;36.27;29.06
23176;BME280;19910;42.652;23.332;2023-07-13T12:33:57;94590.06;;;36.30;29.82
23176;BME280;19910;42.652;23.332;2023-07-13T12:36:25;94579.88;;;36.64;30.60
23176;BME280;19910;42.652;23.332;2023-07-13T12:38:53;94584.78;;;36.90;30.92
23176;BME280;19910;42.652;23.332;2023-07-13T12:41:20;94586.59;;;37.24;29.84
23176;BME280;19910;42.652;23.332;2023-07-13T12:43:49;94580.63;;;37.54;28.63
23176;BME280;19910;42.652;23.332;2023-07-13T12:46:18;94577.72;;;37.85;29.51
23176;BME280;19910;42.652;23.332;2023-07-13T12:48:49;94579.47;;;37.72;30.22
23176;BME280;19910;42.652;23.332;2023-07-13T12:51:17;94585.41;;;37.79;28.43
23176;BME280;19910;42.652;23.332;2023-07-13T12:53:49;94587.16;;;37.28;28.72
23176;BME280;19910;42.652;23.332;2023-07-13T12:56:21;94580.41;;;37.20;28.53
23176;BME280;19910;42.652;23.332;2023-07-13T12:58:50;94582.75;;;36.96;30.04
23176;BME280;19910;42.652;23.332;2023-07-13T13:01:21;94580.66;;;36.91;29.61